Time;durP1;ratioP1;P1;durP2;ratioP2;P2;SDS_P1;SDS_P2;PMS_P1;PMS_P2;Temp;Humidity;BMP_temperature;BMP_pressure;BME280_temperature;BME280_humidity;BME280_pressure;Samples;Min_cycle;Max_cycle;Signal;HPM_P1;HPM_P2
2023/01/21 00:00:41;;;;;;;0.40;0.40;;;;;;;6.89;57.72;102788.59;4993240;28;20073;-67
2023/01/21 00:03:07;;;;;;;0.40;0.40;;;;;;;7.02;57.72;102793.53;4991320;28;20077;-66
2023/01/21 00:05:33;;;;;;;0.40;0.40;;;;;;;6.93;57.61;102783.78;4983159;28;20035;-66
2023/01/21 00:07:58;;;;;;;0.50;0.50;;;;;;;6.46;59.36;102788.50;4988193;28;20046;-68
2023/01/21 00:10:24;;;;;;;0.30;0.30;;;;;;;6.58;59.36;102800.66;4992172;28;20784;-69
2023/01/21 00:12:50;;;;;;;0.50;0.50;;;;;;;6.88;58.38;102796.72;4992642;28;20066;-68
2023/01/21 00:15:15;;;;;;;0.50;0.50;;;;;;;6.79;58.61;102797.66;4991177;28;20450;-66
2023/01/21 00:17:42;;;;;;;0.40;0.40;;;;;;;6.99;57.75;102802.72;4992757;28;20069;-67
2023/01/21 00:20:09;;;;;;;0.50;0.50;;;;;;;6.71;58.38;102809.13;4992238;28;20041;-68
2023/01/21 00:22:34;;;;;;;0.60;0.60;;;;;;;6.62;58.86;102814.53;4992526;28;20176;-67
2023/01/21 00:24:59;;;;;;;0.50;0.50;;;;;;;6.52;59.38;102819.94;4992261;28;20026;-67
2023/01/21 00:27:25;;;;;;;0.40;0.40;;;;;;;6.67;58.66;102822.91;4993666;28;20037;-69
2023/01/21 00:29:50;;;;;;;0.43;0.43;;;;;;;6.60;58.47;102830.72;4992121;28;20039;-67
2023/01/21 00:32:16;;;;;;;0.43;0.43;;;;;;;6.09;60.54;102836.59;4991965;28;20121;-67
2023/01/21 00:34:41;;;;;;;0.50;0.50;;;;;;;6.57;58.68;102840.84;4992259;28;20034;-66
2023/01/21 00:37:07;;;;;;;0.50;0.50;;;;;;;5.74;61.19;102836.41;4991976;28;20033;-67
2023/01/21 00:39:32;;;;;;;0.40;0.40;;;;;;;6.08;61.40;102844.75;4992423;28;20058;-69
2023/01/21 00:41:58;;;;;;;0.40;0.40;;;;;;;6.21;60.57;102847.94;4991589;28;20470;-66
2023/01/21 00:44:23;;;;;;;0.40;0.40;;;;;;;5.80;60.77;102848.31;4990817;28;20042;-67
2023/01/21 00:46:49;;;;;;;0.50;0.50;;;;;;;5.50;63.08;102859.22;4991933;28;20096;-67
2023/01/21 00:49:14;;;;;;;0.40;0.40;;;;;;;5.51;62.43;102852.88;4991396;28;20487;-67
2023/01/21 00:51:39;;;;;;;0.43;0.43;;;;;;;6.08;60.94;102852.75;4992356;28;20082;-66
2023/01/21 00:54:05;;;;;;;0.50;0.50;;;;;;;5.90;61.04;102851.84;4991811;28;20121;-66
2023/01/21 00:56:30;;;;;;;0.50;0.50;;;;;;;6.15;60.59;102862.69;4991567;28;20034;-67
2023/01/21 00:58:55;;;;;;;0.40;0.40;;;;;;;6.30;59.50;102859.53;4991669;28;20030;-66
2023/01/21 01:01:21;;;;;;;0.40;0.40;;;;;;;6.25;60.06;102861.81;4985683;28;20170;-66
2023/01/21 01:03:48;;;;;;;0.57;0.47;;;;;;;6.14;60.20;102855.69;4986405;28;20030;-67
2023/01/21 01:06:15;;;;;;;0.60;0.60;;;;;;;6.41;59.74;102862.03;4991678;28;20034;-66
2023/01/21 01:08:42;;;;;;;0.60;0.60;;;;;;;6.13;60.21;102866.53;4991849;28;20034;-67
2023/01/21 01:11:07;;;;;;;0.50;0.50;;;;;;;6.21;60.32;102862.09;4989866;28;20122;-68
2023/01/21 01:13:34;;;;;;;0.43;0.43;;;;;;;5.83;61.36;102862.28;4991405;28;20117;-66
2023/01/21 01:16:01;;;;;;;0.40;0.40;;;;;;;6.52;59.71;102873.34;4991314;28;20030;-68
2023/01/21 01:18:28;;;;;;;0.50;0.50;;;;;;;6.37;59.66;102872.16;4992136;28;20038;-67
2023/01/21 01:20:53;;;;;;;0.53;0.53;;;;;;;5.89;61.65;102877.69;4991314;28;20081;-67
2023/01/21 01:23:19;;;;;;;0.50;0.50;;;;;;;6.27;60.13;102883.88;4982168;28;20430;-68
2023/01/21 01:25:54;;;;;;;0.50;0.50;;;;;;;6.68;59.08;102884.19;4984574;28;20380;-68
2023/01/21 01:28:20;;;;;;;0.60;0.60;;;;;;;6.65;58.75;102889.84;4991254;28;20593;-67
2023/01/21 01:30:45;;;;;;;0.50;0.50;;;;;;;6.71;58.59;102896.44;4992387;28;20105;-66
2023/01/21 01:33:10;;;;;;;0.40;0.40;;;;;;;6.44;58.98;102897.28;4991659;28;20503;-66
2023/01/21 01:35:36;;;;;;;0.70;0.70;;;;;;;6.53;58.97;102898.22;4991473;28;20447;-66
2023/01/21 01:38:06;;;;;;;0.70;0.70;;;;;;;6.73;58.42;102902.47;4991679;28;20061;-67
2023/01/21 01:40:32;;;;;;;0.50;0.50;;;;;;;6.36;59.45;102910.53;4991447;28;20046;-66
2023/01/21 01:42:58;;;;;;;0.50;0.50;;;;;;;6.53;58.76;102906.22;4981830;28;20129;-68
2023/01/21 01:45:23;;;;;;;0.50;0.50;;;;;;;6.40;59.32;102911.94;4971804;28;20227;-67
2023/01/21 01:47:58;;;;;;;0.53;0.53;;;;;;;6.62;58.71;102916.03;4981577;28;20033;-68
2023/01/21 01:50:29;;;;;;;0.50;0.50;;;;;;;6.32;59.80;102919.81;4991061;28;20039;-69
2023/01/21 01:52:57;;;;;;;0.47;0.47;;;;;;;6.52;58.74;102921.44;4991290;28;20041;-64
2023/01/21 01:55:22;;;;;;;0.60;0.60;;;;;;;6.46;58.86;102924.69;4991286;28;20038;-67
2023/01/21 01:57:53;;;;;;;0.50;0.50;;;;;;;6.49;58.98;102926.19;4991807;28;20022;-68
2023/01/21 02:00:19;;;;;;;0.50;0.50;;;;;;;6.53;58.59;102927.59;4991225;28;20038;-68
2023/01/21 02:03:43;;;;;;;0.60;0.60;;;;;;;6.33;59.38;102932.16;4991086;28;20522;-66
2023/01/21 02:05:33;;;;;;;0.53;0.53;;;;;;;6.71;58.40;102924.00;4990967;28;20088;-65
2023/01/21 02:07:59;;;;;;;0.50;0.50;;;;;;;6.68;58.20;102926.13;4990987;28;20049;-65
2023/01/21 02:10:25;;;;;;;0.57;0.57;;;;;;;6.64;58.52;102941.63;4990965;28;20039;-67
2023/01/21 02:12:50;;;;;;;0.60;0.60;;;;;;;6.46;58.89;102935.38;4991441;28;20034;-67
2023/01/21 02:15:16;;;;;;;0.40;0.40;;;;;;;6.45;59.04;102936.34;4991286;28;20035;-67
2023/01/21 02:18:04;;;;;;;0.40;0.40;;;;;;;6.61;58.52;102939.22;4991342;28;20038;-66
2023/01/21 02:20:54;;;;;;;0.50;0.50;;;;;;;6.78;58.14;102946.44;4977045;28;20041;-66
2023/01/21 02:23:57;;;;;;;0.40;0.40;;;;;;;6.73;58.32;102948.72;4971900;28;20149;-68
2023/01/21 02:26:51;;;;;;;0.53;0.53;;;;;;;6.63;58.51;102953.28;4971710;28;20046;-65
2023/01/21 02:29:39;;;;;;;0.40;0.40;;;;;;;6.61;59.00;102959.75;4971751;28;20043;-64
2023/01/21 02:32:38;;;;;;;0.60;0.60;;;;;;;7.01;58.35;102962.91;4971478;28;20034;-67
2023/01/21 02:35:21;;;;;;;0.50;0.50;;;;;;;6.85;59.31;102971.59;4971298;28;20035;-67
2023/01/21 02:38:16;;;;;;;0.33;0.33;;;;;;;6.54;59.23;102978.22;4972995;28;20038;-68
2023/01/21 02:40:56;;;;;;;0.53;0.53;;;;;;;6.45;60.10;102986.22;4975010;28;20474;-66
2023/01/21 02:43:38;;;;;;;0.40;0.40;;;;;;;6.45;61.02;102983.56;4974962;28;20039;-66
2023/01/21 02:46:49;;;;;;;0.50;0.50;;;;;;;6.89;59.44;102985.50;4974881;28;20033;-65
2023/01/21 02:49:24;;;;;;;0.50;0.50;;;;;;;7.03;59.07;102988.53;4984564;28;20645;-66
2023/01/21 02:51:49;;;;;;;0.57;0.57;;;;;;;6.70;58.97;102994.44;4994443;28;20058;-67
2023/01/21 02:54:37;;;;;;;0.50;0.50;;;;;;;6.70;59.94;102993.59;4993996;28;20050;-66
2023/01/21 02:57:13;;;;;;;0.30;0.30;;;;;;;6.94;58.79;103001.91;4994051;28;20039;-66
2023/01/21 02:59:43;;;;;;;0.47;0.47;;;;;;;7.05;58.93;102997.22;4994008;28;20062;-66
2023/01/21 03:02:24;;;;;;;0.50;0.50;;;;;;;7.30;58.58;103003.69;4994013;28;20035;-65
2023/01/21 03:05:05;;;;;;;0.35;0.35;;;;;;;6.86;60.26;103016.00;4994107;28;20041;-67
2023/01/21 03:07:34;;;;;;;0.43;0.43;;;;;;;6.36;61.41;103035.19;4994144;28;20034;-68
2023/01/21 03:10:21;;;;;;;0.45;0.45;;;;;;;6.85;60.27;103022.38;4993861;28;20042;-67
2023/01/21 03:13:00;;;;;;;0.60;0.60;;;;;;;7.10;59.50;103021.66;4994138;28;20030;-67
2023/01/21 03:18:28;;;;;;;0.50;0.50;;;;;;;6.75;60.68;103040.25;4985242;28;20121;-65
2023/01/21 03:21:09;;;;;;;0.43;0.43;;;;;;;5.68;64.32;103034.34;4993734;28;20031;-67
2023/01/21 03:23:40;;;;;;;0.50;0.50;;;;;;;6.29;62.31;103042.91;4993805;28;20053;-68
2023/01/21 03:26:08;;;;;;;0.40;0.40;;;;;;;5.76;62.33;103039.84;4993510;28;20345;-66
2023/01/21 03:28:38;;;;;;;0.60;0.60;;;;;;;6.21;62.28;103038.28;4993716;28;20494;-66
2023/01/21 03:31:07;;;;;;;0.40;0.40;;;;;;;6.37;61.66;103039.53;4993496;28;20340;-66
2023/01/21 03:33:36;;;;;;;0.50;0.50;;;;;;;6.08;62.86;103034.25;4993894;28;20450;-66
2023/01/21 03:36:15;;;;;;;0.47;0.47;;;;;;;6.67;61.54;103033.97;4993194;28;20558;-67
2023/01/21 03:38:50;;;;;;;0.55;0.55;;;;;;;6.44;61.09;103054.84;4993640;28;20046;-65
2023/01/21 03:41:23;;;;;;;0.40;0.40;;;;;;;6.74;60.83;103051.09;4993278;28;20038;-66
2023/01/21 03:43:49;;;;;;;0.50;0.50;;;;;;;6.40;61.33;103060.59;4991871;28;20038;-67
2023/01/21 03:46:26;;;;;;;0.40;0.40;;;;;;;6.55;61.01;103057.34;4993689;28;20380;-66
2023/01/21 03:49:01;;;;;;;0.40;0.40;;;;;;;6.63;61.22;103057.47;4993384;28;20602;-65
2023/01/21 03:51:33;;;;;;;0.50;0.50;;;;;;;6.85;59.78;103054.44;4993207;28;20051;-66
2023/01/21 03:53:58;;;;;;;0.40;0.40;;;;;;;7.05;59.87;103053.38;4993072;28;20042;-66
2023/01/21 03:56:25;;;;;;;0.40;0.40;;;;;;;6.96;60.22;103056.91;4993237;28;20096;-66
2023/01/21 03:58:50;;;;;;;0.60;0.60;;;;;;;7.00;59.96;103052.94;4992826;28;20506;-66
2023/01/21 04:01:15;;;;;;;0.47;0.47;;;;;;;6.68;60.34;103049.84;4992898;28;20026;-66
2023/01/21 04:03:42;;;;;;;0.57;0.57;;;;;;;6.89;60.21;103045.13;4993684;28;20037;-66
2023/01/21 04:06:16;;;;;;;0.50;0.50;;;;;;;6.83;60.47;103050.22;4993035;28;20526;-67
2023/01/21 04:08:42;;;;;;;0.50;0.50;;;;;;;6.16;61.69;103058.41;4992924;28;20062;-65
2023/01/21 04:11:07;;;;;;;0.40;0.40;;;;;;;6.49;61.64;103060.59;4993922;28;20116;-66
2023/01/21 04:13:33;;;;;;;0.50;0.50;;;;;;;6.51;61.33;103057.75;4983283;28;20035;-65
2023/01/21 04:15:58;;;;;;;0.50;0.50;;;;;;;6.54;61.47;103060.16;4993042;28;20037;-66
2023/01/21 04:18:23;;;;;;;0.50;0.50;;;;;;;6.37;61.13;103060.91;4992785;28;20038;-65
2023/01/21 04:20:49;;;;;;;0.60;0.60;;;;;;;6.84;60.72;103067.94;4992827;28;20126;-65
2023/01/21 04:23:14;;;;;;;0.45;0.45;;;;;;;7.11;59.56;103060.75;4992515;28;20111;-65
2023/01/21 04:25:39;;;;;;;0.45;0.45;;;;;;;6.63;60.78;103070.81;4991224;28;20044;-65
2023/01/21 04:28:05;;;;;;;0.52;0.52;;;;;;;6.53;61.44;103074.47;4992265;28;20041;-65
2023/01/21 04:30:30;;;;;;;0.60;0.60;;;;;;;6.64;61.31;103080.53;4992737;28;20465;-65
2023/01/21 04:32:55;;;;;;;0.50;0.50;;;;;;;6.84;60.27;103075.97;4992157;28;20050;-66
2023/01/21 04:35:21;;;;;;;0.45;0.45;;;;;;;6.89;60.06;103079.03;4992569;28;20417;-66
2023/01/21 04:37:46;;;;;;;0.53;0.53;;;;;;;6.90;60.74;103081.53;4992487;28;20126;-66
2023/01/21 04:40:12;;;;;;;0.52;0.52;;;;;;;7.19;59.92;103081.44;4992555;28;20061;-66
2023/01/21 04:42:37;;;;;;;0.50;0.50;;;;;;;7.11;59.76;103078.66;4993019;28;20148;-67
2023/01/21 04:45:03;;;;;;;0.40;0.40;;;;;;;7.04;60.35;103091.75;4992127;28;20042;-67
2023/01/21 04:47:28;;;;;;;0.40;0.40;;;;;;;7.11;59.51;103094.69;4992119;28;20058;-66
2023/01/21 04:49:54;;;;;;;0.45;0.45;;;;;;;7.56;58.50;103097.41;4991917;28;20038;-66
2023/01/21 04:52:19;;;;;;;0.45;0.45;;;;;;;7.59;58.20;103083.72;4991863;28;20050;-65
2023/01/21 04:54:45;;;;;;;0.47;0.47;;;;;;;7.59;58.89;103091.75;4992356;28;20110;-66
2023/01/21 04:57:10;;;;;;;0.65;0.65;;;;;;;6.71;60.17;103099.47;4989303;28;20038;-66
2023/01/21 04:59:36;;;;;;;0.40;0.40;;;;;;;7.28;59.35;103096.59;4972116;28;20027;-66
2023/01/21 05:02:02;;;;;;;0.50;0.50;;;;;;;7.41;59.00;103105.09;4979275;28;20031;-66
2023/01/21 05:04:27;;;;;;;0.40;0.40;;;;;;;7.37;58.81;103095.69;4991504;28;20494;-65
2023/01/21 05:06:53;;;;;;;0.57;0.57;;;;;;;7.25;59.34;103088.03;4991829;28;20041;-66
2023/01/21 05:09:18;;;;;;;0.40;0.40;;;;;;;7.60;58.50;103088.94;4988403;28;20042;-67
2023/01/21 05:11:43;;;;;;;0.50;0.50;;;;;;;7.44;59.05;103094.09;4991204;28;20086;-65
2023/01/21 05:14:09;;;;;;;0.60;0.60;;;;;;;7.62;58.86;103094.13;4990889;28;20126;-66
2023/01/21 05:16:34;;;;;;;0.50;0.50;;;;;;;7.54;58.81;103100.25;4991418;28;20065;-65
2023/01/21 05:18:59;;;;;;;0.40;0.40;;;;;;;7.44;58.93;103087.91;4991911;28;20038;-66
2023/01/21 05:21:25;;;;;;;0.50;0.50;;;;;;;7.55;59.15;103080.50;4992175;28;20093;-66
2023/01/21 05:23:50;;;;;;;0.60;0.60;;;;;;;7.27;59.79;103089.56;4991562;28;20050;-65
2023/01/21 05:26:15;;;;;;;0.30;0.30;;;;;;;7.30;59.48;103097.28;4991789;28;20121;-66
2023/01/21 05:28:41;;;;;;;0.50;0.50;;;;;;;7.59;58.92;103097.09;4991444;28;20372;-67
2023/01/21 05:31:06;;;;;;;0.60;0.60;;;;;;;7.69;58.17;103095.19;4991420;28;20387;-65
2023/01/21 05:33:33;;;;;;;0.60;0.60;;;;;;;7.89;57.88;103104.78;4991956;28;20026;-65
2023/01/21 05:35:59;;;;;;;0.60;0.60;;;;;;;7.66;58.87;103106.22;4991447;28;20125;-66
2023/01/21 05:38:25;;;;;;;0.47;0.47;;;;;;;7.82;58.86;103111.75;4990267;28;20042;-67
2023/01/21 05:40:58;;;;;;;0.40;0.40;;;;;;;7.90;58.39;103103.81;4991223;28;20037;-67
2023/01/21 05:43:24;;;;;;;0.60;0.60;;;;;;;7.96;58.41;103105.84;4991335;28;20073;-66
2023/01/21 05:45:49;;;;;;;0.60;0.60;;;;;;;7.79;58.81;103114.72;4991460;28;20042;-66
2023/01/21 05:48:15;;;;;;;0.68;0.68;;;;;;;7.72;58.27;103119.00;4990978;28;20403;-66
2023/01/21 05:50:40;;;;;;;0.43;0.43;;;;;;;7.73;58.86;103131.38;4991191;28;20521;-65
2023/01/21 05:53:05;;;;;;;0.43;0.43;;;;;;;7.88;58.36;103129.88;4989209;28;20491;-65
2023/01/21 05:55:31;;;;;;;0.40;0.40;;;;;;;7.84;58.54;103129.31;4991118;28;20454;-67
2023/01/21 05:57:56;;;;;;;0.50;0.50;;;;;;;7.61;58.88;103135.25;4991293;28;20034;-67
2023/01/21 06:00:21;;;;;;;0.43;0.43;;;;;;;7.90;58.46;103149.31;4991051;28;20054;-68
2023/01/21 06:02:47;;;;;;;0.30;0.30;;;;;;;7.73;58.74;103142.94;4990877;28;20125;-67
2023/01/21 06:05:12;;;;;;;0.50;0.50;;;;;;;7.40;59.69;103142.69;4979517;28;20093;-67
2023/01/21 06:07:38;;;;;;;0.50;0.50;;;;;;;7.68;58.55;103144.38;4971923;28;20039;-66
2023/01/21 06:10:03;;;;;;;0.50;0.50;;;;;;;7.78;58.46;103147.84;4971592;28;20484;-66
2023/01/21 06:12:29;;;;;;;0.50;0.50;;;;;;;7.97;58.05;103161.09;4974839;28;20355;-65
2023/01/21 06:14:54;;;;;;;0.40;0.40;;;;;;;7.87;58.16;103165.66;4974098;28;20058;-65
2023/01/21 06:17:20;;;;;;;0.50;0.50;;;;;;;8.17;57.54;103153.75;4975524;28;20460;-66
2023/01/21 06:19:45;;;;;;;0.50;0.50;;;;;;;8.13;57.42;103158.59;4975547;28;20042;-65
2023/01/21 06:22:19;;;;;;;0.40;0.40;;;;;;;8.27;57.73;103163.44;4990775;28;20121;-66
2023/01/21 06:24:45;;;;;;;0.47;0.47;;;;;;;8.09;57.57;103167.06;4975791;28;20038;-65
2023/01/21 06:27:11;;;;;;;0.65;0.65;;;;;;;8.15;57.73;103174.50;4978908;28;20450;-66
2023/01/21 06:29:36;;;;;;;0.40;0.40;;;;;;;8.17;57.83;103176.03;4994574;28;20043;-67
2023/01/21 06:32:02;;;;;;;0.50;0.50;;;;;;;7.79;58.77;103176.28;4994551;28;20030;-66
2023/01/21 06:34:28;;;;;;;0.40;0.40;;;;;;;7.49;60.25;103176.59;4994624;28;20045;-66
2023/01/21 06:36:53;;;;;;;0.50;0.50;;;;;;;7.65;59.42;103185.66;4995344;28;20054;-66
2023/01/21 06:39:18;;;;;;;0.43;0.43;;;;;;;7.99;58.58;103185.88;4994566;28;20030;-65
2023/01/21 06:41:44;;;;;;;0.35;0.35;;;;;;;7.84;59.11;103184.72;4994539;28;20117;-66
2023/01/21 06:44:09;;;;;;;0.52;0.52;;;;;;;8.02;58.93;103187.41;4994502;28;20046;-67
2023/01/21 06:46:34;;;;;;;0.50;0.50;;;;;;;8.26;57.67;103191.19;4994553;28;20474;-65
2023/01/21 06:49:00;;;;;;;0.50;0.50;;;;;;;8.25;57.76;103194.88;4993935;28;20057;-67
2023/01/21 06:51:25;;;;;;;0.35;0.35;;;;;;;8.27;58.08;103198.25;4994004;28;20023;-65
2023/01/21 06:53:51;;;;;;;0.30;0.30;;;;;;;7.97;58.21;103201.25;4992708;28;20137;-66
2023/01/21 06:56:17;;;;;;;0.50;0.50;;;;;;;7.96;59.11;103204.91;4993303;28;20081;-66
2023/01/21 06:58:42;;;;;;;0.40;0.40;;;;;;;8.21;58.26;103209.53;4994002;28;20557;-65
2023/01/21 07:01:08;;;;;;;0.55;0.55;;;;;;;8.27;58.01;103213.47;4988813;28;20081;-67
2023/01/21 07:03:33;;;;;;;0.40;0.40;;;;;;;8.22;58.16;103221.06;4991978;28;20121;-67
2023/01/21 07:05:58;;;;;;;0.60;0.60;;;;;;;8.17;58.49;103232.28;4991700;28;20410;-66
2023/01/21 07:08:24;;;;;;;0.50;0.50;;;;;;;8.17;58.62;103228.75;4987331;28;20121;-66
2023/01/21 07:10:49;;;;;;;0.40;0.40;;;;;;;8.11;58.61;103234.69;4990148;28;20041;-66
2023/01/21 07:13:14;;;;;;;0.60;0.60;;;;;;;8.11;58.45;103240.91;4992088;28;20415;-69
2023/01/21 07:15:40;;;;;;;0.30;0.30;;;;;;;8.13;58.21;103251.47;4992896;28;20030;-66
2023/01/21 07:18:05;;;;;;;0.47;0.47;;;;;;;8.08;58.65;103251.91;4993435;28;20122;-67
2023/01/21 07:20:33;;;;;;;0.47;0.47;;;;;;;8.24;58.30;103251.22;4993768;28;20117;-66
2023/01/21 07:22:59;;;;;;;0.50;0.50;;;;;;;8.49;57.66;103250.53;4992697;28;20630;-68
2023/01/21 07:25:24;;;;;;;0.50;0.50;;;;;;;8.35;57.52;103261.78;4993572;28;20042;-68
2023/01/21 07:27:49;;;;;;;0.68;0.68;;;;;;;7.70;59.77;103270.84;4993650;28;20038;-68
2023/01/21 07:30:17;;;;;;;0.47;0.47;;;;;;;7.69;59.87;103275.34;4993170;28;20045;-67
2023/01/21 07:32:44;;;;;;;0.47;0.47;;;;;;;8.18;58.82;103265.22;4992381;28;20038;-66
2023/01/21 07:35:09;;;;;;;0.68;0.68;;;;;;;8.30;58.58;103272.94;4993281;28;20073;-67
2023/01/21 07:37:35;;;;;;;0.30;0.30;;;;;;;8.26;58.80;103268.88;4993248;28;20030;-66
2023/01/21 07:40:02;;;;;;;0.40;0.40;;;;;;;8.38;58.26;103275.72;4993193;28;20117;-69
2023/01/21 07:42:27;;;;;;;0.52;0.52;;;;;;;8.41;57.76;103277.25;4993678;28;20475;-66
2023/01/21 07:44:52;;;;;;;0.43;0.43;;;;;;;8.51;57.77;103288.75;4991668;28;20145;-67
2023/01/21 07:47:18;;;;;;;0.40;0.40;;;;;;;8.59;57.49;103286.13;4992878;28;20129;-67
2023/01/21 07:49:43;;;;;;;0.52;0.52;;;;;;;8.48;58.08;103299.75;4992621;28;20129;-67
2023/01/21 07:52:08;;;;;;;0.50;0.50;;;;;;;8.53;58.06;103302.84;4992554;28;20116;-67
2023/01/21 07:54:34;;;;;;;0.38;0.38;;;;;;;8.44;58.10;103301.06;4993195;28;20105;-65
2023/01/21 07:56:59;;;;;;;0.50;0.50;;;;;;;8.50;57.70;103300.44;4989946;28;20069;-67
2023/01/21 07:59:25;;;;;;;0.40;0.40;;;;;;;8.50;58.05;103305.81;4992846;28;20441;-65
2023/01/21 08:01:50;;;;;;;0.45;0.45;;;;;;;8.63;57.43;103317.00;4992539;28;20035;-66
2023/01/21 08:04:15;;;;;;;0.50;0.50;;;;;;;7.93;59.85;103326.53;4992830;28;20069;-68
2023/01/21 08:06:41;;;;;;;0.50;0.50;;;;;;;8.13;59.36;103327.28;4993294;28;20434;-68
2023/01/21 08:09:08;;;;;;;0.55;0.55;;;;;;;7.77;60.36;103322.78;4992562;28;20042;-66
2023/01/21 08:11:33;;;;;;;0.40;0.40;;;;;;;7.42;62.01;103326.13;4992515;28;20026;-66
2023/01/21 08:13:58;;;;;;;0.50;0.50;;;;;;;8.00;59.83;103327.63;4992564;28;20089;-67
2023/01/21 08:16:24;;;;;;;0.50;0.50;;;;;;;7.64;60.95;103332.97;4992525;28;20093;-66
2023/01/21 08:18:49;;;;;;;0.60;0.60;;;;;;;7.82;60.27;103329.38;4992869;28;20508;-67
2023/01/21 08:21:15;;;;;;;0.60;0.60;;;;;;;8.02;59.68;103333.66;4992530;28;20044;-67
2023/01/21 08:23:40;;;;;;;0.43;0.43;;;;;;;7.28;62.29;103339.94;4992186;28;20458;-66
2023/01/21 08:26:06;;;;;;;0.55;0.55;;;;;;;7.87;60.64;103340.50;4992410;28;20120;-66
2023/01/21 08:28:33;;;;;;;0.60;0.60;;;;;;;7.76;61.10;103337.97;4991923;28;20092;-68
2023/01/21 08:31:10;;;;;;;0.40;0.40;;;;;;;8.11;60.29;103331.94;4992122;28;20038;-67
2023/01/21 08:33:36;;;;;;;0.60;0.60;;;;;;;7.08;63.49;103339.09;4992716;28;20500;-66
2023/01/21 08:36:05;;;;;;;0.60;0.60;;;;;;;8.15;60.61;103343.19;4991003;28;20030;-68
2023/01/21 08:38:31;;;;;;;0.50;0.50;;;;;;;7.55;62.95;103347.19;4991695;28;20038;-65
2023/01/21 08:40:59;;;;;;;0.60;0.60;;;;;;;8.02;60.67;103345.38;4991670;28;20050;-65
2023/01/21 08:43:26;;;;;;;0.60;0.60;;;;;;;7.92;60.91;103346.25;4991783;28;20038;-67
2023/01/21 08:45:54;;;;;;;0.60;0.60;;;;;;;7.96;60.70;103349.47;4989569;28;20403;-67
2023/01/21 08:48:20;;;;;;;0.40;0.40;;;;;;;8.15;60.39;103341.38;4988662;28;20030;-66
2023/01/21 08:50:45;;;;;;;0.50;0.50;;;;;;;8.63;58.59;103339.28;4991426;28;20049;-66
2023/01/21 08:53:11;;;;;;;0.50;0.50;;;;;;;8.33;59.13;103339.63;4991016;28;20145;-68
2023/01/21 08:55:36;;;;;;;0.50;0.50;;;;;;;8.72;57.72;103333.03;4991160;28;20490;-66
2023/01/21 08:58:02;;;;;;;0.50;0.50;;;;;;;8.25;59.12;103347.56;4991172;28;20026;-67
2023/01/21 09:00:27;;;;;;;0.40;0.40;;;;;;;7.82;60.75;103349.97;4991205;28;20041;-65
2023/01/21 09:02:53;;;;;;;0.50;0.50;;;;;;;7.82;61.27;103356.13;4991023;28;20030;-67
2023/01/21 09:05:19;;;;;;;0.60;0.60;;;;;;;5.70;67.37;103368.47;4991277;28;20034;-66
2023/01/21 09:07:44;;;;;;;0.50;0.50;;;;;;;7.11;63.75;103360.19;4991211;28;20332;-65
2023/01/21 09:10:10;;;;;;;0.50;0.50;;;;;;;7.35;62.67;103358.94;4991109;28;20033;-67
2023/01/21 09:12:37;;;;;;;0.60;0.60;;;;;;;7.18;63.64;103371.19;4991542;28;20034;-65
2023/01/21 09:15:03;;;;;;;0.50;0.50;;;;;;;7.57;62.14;103364.81;4990686;28;20061;-66
2023/01/21 09:17:29;;;;;;;0.50;0.50;;;;;;;7.71;62.59;103368.84;4991349;28;20030;-66
2023/01/21 09:19:54;;;;;;;0.50;0.50;;;;;;;8.01;60.84;103368.63;4990824;28;20490;-69
2023/01/21 09:22:19;;;;;;;0.50;0.50;;;;;;;7.63;61.30;103372.25;4990912;28;20042;-67
2023/01/21 09:24:45;;;;;;;0.40;0.40;;;;;;;8.34;60.19;103370.78;4991587;28;20022;-67
2023/01/21 09:27:10;;;;;;;0.40;0.40;;;;;;;8.79;58.74;103368.94;4990858;28;20430;-66
2023/01/21 09:29:35;;;;;;;0.50;0.50;;;;;;;8.70;59.01;103371.69;4990797;28;20088;-67
2023/01/21 09:32:01;;;;;;;0.50;0.50;;;;;;;8.23;59.81;103376.31;4990532;28;20049;-68
2023/01/21 09:34:27;;;;;;;0.50;0.50;;;;;;;8.27;60.74;103366.16;4985915;28;20498;-66
2023/01/21 09:36:52;;;;;;;0.50;0.50;;;;;;;8.57;59.20;103368.53;4990695;28;20018;-66
2023/01/21 09:39:18;;;;;;;0.50;0.50;;;;;;;8.40;60.04;103369.31;4990045;28;20042;-67
2023/01/21 09:41:52;;;;;;;0.57;0.57;;;;;;;7.83;61.98;103373.91;4986651;28;20046;-67
2023/01/21 09:44:42;;;;;;;0.40;0.40;;;;;;;8.60;59.92;103376.25;4986618;28;20471;-67
2023/01/21 09:47:14;;;;;;;0.60;0.60;;;;;;;8.54;59.93;103367.00;4987445;28;20367;-66
2023/01/21 09:49:48;;;;;;;0.40;0.40;;;;;;;8.97;58.14;103371.63;4989590;28;20133;-66
2023/01/21 09:52:37;;;;;;;0.40;0.40;;;;;;;7.36;63.56;103384.69;4987777;28;20077;-66
2023/01/21 09:55:04;;;;;;;0.45;0.45;;;;;;;8.26;59.82;103368.00;4984277;28;20038;-69
2023/01/21 09:58:02;;;;;;;0.55;0.55;;;;;;;8.25;61.52;103382.38;4987928;28;20022;-66
2023/01/21 10:01:10;;;;;;;0.57;0.57;;;;;;;8.26;60.14;103399.28;4971181;28;20047;-67
2023/01/21 10:03:54;;;;;;;0.40;0.40;;;;;;;7.43;63.60;103400.03;4990633;28;20396;-67
2023/01/21 10:06:44;;;;;;;0.50;0.50;;;;;;;8.22;62.05;103393.34;4990415;28;20038;-67
2023/01/21 10:09:22;;;;;;;0.55;0.55;;;;;;;8.69;59.51;103392.28;4990007;28;20097;-67
2023/01/21 10:12:03;;;;;;;0.52;0.52;;;;;;;9.05;59.19;103395.84;4989615;28;20066;-66
2023/01/21 10:15:05;;;;;;;0.50;0.50;;;;;;;9.44;57.87;103393.69;4990011;28;20398;-67
2023/01/21 10:17:39;;;;;;;0.40;0.40;;;;;;;8.58;60.44;103405.91;4990395;28;20119;-67
2023/01/21 10:20:31;;;;;;;0.47;0.47;;;;;;;8.59;60.26;103409.41;4987525;28;20129;-68
2023/01/21 10:23:00;;;;;;;;;;;;;;;9.84;57.40;103401.19;4990070;28;20394;-66
2023/01/21 10:25:31;;;;;;;0.70;0.70;;;;;;;9.67;56.87;103402.91;4989317;28;19914;-66
2023/01/21 10:28:02;;;;;;;0.40;0.40;;;;;;;7.74;62.40;103409.53;5004425;28;20058;-67
2023/01/21 10:30:37;;;;;;;0.60;0.60;;;;;;;7.85;63.09;103416.59;4988285;28;20501;-68
2023/01/21 10:33:05;;;;;;;0.55;0.55;;;;;;;7.73;62.94;103412.38;4988609;28;20035;-68
2023/01/21 10:35:55;;;;;;;0.40;0.40;;;;;;;7.79;62.48;103409.13;4990069;28;20042;-65
2023/01/21 10:38:43;;;;;;;0.40;0.40;;;;;;;8.03;62.74;103414.84;4988059;28;20494;-68
2023/01/21 10:41:36;;;;;;;0.22;0.22;;;;;;;8.83;59.99;103410.53;4989354;28;20030;-66
2023/01/21 10:44:14;;;;;;;0.55;0.55;;;;;;;8.07;61.54;103413.56;4990295;28;20453;-68
2023/01/21 10:46:45;;;;;;;0.40;0.40;;;;;;;8.92;59.52;103413.31;4988029;28;20042;-66
2023/01/21 10:49:35;;;;;;;0.40;0.40;;;;;;;8.49;60.82;103419.34;4989498;28;20088;-68
2023/01/21 10:52:24;;;;;;;0.50;0.50;;;;;;;8.30;62.44;103420.28;4989990;28;20126;-66
2023/01/21 10:55:04;;;;;;;0.50;0.50;;;;;;;7.42;64.95;103433.13;4989691;28;20034;-68
2023/01/21 10:58:10;;;;;;;0.40;0.40;;;;;;;8.46;61.98;103430.34;4990093;28;20042;-68
2023/01/21 11:00:46;;;;;;;0.60;0.60;;;;;;;8.05;62.60;103430.75;4993321;28;20042;-68
2023/01/21 11:03:21;;;;;;;0.57;0.57;;;;;;;8.29;61.73;103428.47;4992829;28;20030;-67
2023/01/21 11:05:46;;;;;;;0.35;0.35;;;;;;;8.46;61.20;103420.50;4992058;28;20061;-68
2023/01/21 11:08:19;;;;;;;0.45;0.45;;;;;;;7.89;61.95;103428.69;4991598;28;20057;-67
2023/01/21 11:10:47;;;;;;;0.30;0.30;;;;;;;7.47;64.01;103422.81;4991545;28;20498;-68
2023/01/21 11:13:13;;;;;;;0.50;0.50;;;;;;;8.69;61.11;103423.59;4993191;28;20475;-68
2023/01/21 11:15:45;;;;;;;0.40;0.40;;;;;;;8.01;62.74;103427.53;4993591;28;20121;-67
2023/01/21 11:18:25;;;;;;;0.47;0.47;;;;;;;7.07;66.33;103422.13;4993263;28;20034;-67
2023/01/21 11:20:56;;;;;;;0.30;0.30;;;;;;;7.25;65.91;103425.81;4993140;28;20096;-67
2023/01/21 11:23:38;;;;;;;0.45;0.45;;;;;;;7.74;63.57;103427.47;4992836;28;20448;-65
2023/01/21 11:26:13;;;;;;;0.50;0.50;;;;;;;7.40;64.40;103432.41;5012582;28;20437;-66
2023/01/21 11:28:39;;;;;;;0.47;0.47;;;;;;;8.08;62.82;103431.31;5007956;28;20408;-69
2023/01/21 11:31:07;;;;;;;0.40;0.40;;;;;;;8.32;62.01;103436.19;5001131;28;20106;-65
2023/01/21 11:33:34;;;;;;;0.50;0.50;;;;;;;9.26;59.29;103427.72;4993670;28;20100;-68
2023/01/21 11:36:20;;;;;;;0.40;0.40;;;;;;;8.73;62.22;103433.03;4993004;28;20140;-66
2023/01/21 11:39:04;;;;;;;0.50;0.50;;;;;;;9.23;58.75;103430.72;4990793;28;20406;-67
2023/01/21 11:41:30;;;;;;;0.35;0.35;;;;;;;8.52;61.85;103432.44;4993948;28;20479;-67
2023/01/21 11:44:19;;;;;;;0.30;0.30;;;;;;;9.23;59.56;103434.25;4993192;28;20092;-67
2023/01/21 11:46:45;;;;;;;0.30;0.30;;;;;;;8.57;60.70;103430.19;4990647;28;20514;-67
2023/01/21 11:49:11;;;;;;;0.30;0.30;;;;;;;8.99;60.61;103431.31;4991257;28;20096;-67